createdAt,value
2019-02-10T00:00:37.164Z,75.86
2019-02-10T00:03:05.342Z,75.88
2019-02-10T00:05:33.517Z,75.88
2019-02-10T00:08:01.703Z,75.88
2019-02-10T00:10:29.875Z,75.94
2019-02-10T00:13:29.047Z,75.85
2019-02-10T00:15:59.924Z,75.88
2019-02-10T00:18:28.100Z,75.96
2019-02-10T00:20:56.267Z,75.99
2019-02-10T00:23:24.454Z,76.02
2019-02-10T00:25:52.633Z,76.08
2019-02-10T00:28:20.812Z,76.15
2019-02-10T00:30:48.982Z,76.16
2019-02-10T00:33:17.149Z,76.22
2019-02-10T00:35:45.408Z,76.26
2019-02-10T00:38:13.574Z,76.22
2019-02-10T00:40:41.754Z,76.12
2019-02-10T00:43:09.946Z,76.01
2019-02-10T00:45:38.122Z,75.92
2019-02-10T00:48:06.311Z,75.92
2019-02-10T00:50:34.488Z,75.91
2019-02-10T00:53:02.675Z,75.88
2019-02-10T00:55:30.842Z,75.90
2019-02-10T00:57:59.050Z,75.94
2019-02-10T01:00:27.238Z,75.85
2019-02-10T01:02:55.412Z,75.89
2019-02-10T01:05:23.592Z,75.96
2019-02-10T01:07:52.030Z,75.97
2019-02-10T01:10:20.988Z,75.96
2019-02-10T01:12:49.169Z,75.97
2019-02-10T01:15:17.347Z,75.96
2019-02-10T01:17:45.535Z,76.00
2019-02-10T01:20:13.715Z,76.15
2019-02-10T01:22:41.893Z,76.12
2019-02-10T01:25:10.066Z,76.16
2019-02-10T01:27:38.239Z,76.20
2019-02-10T01:30:09.808Z,76.38
2019-02-10T01:32:38.026Z,76.39
2019-02-10T01:35:06.157Z,76.37
2019-02-10T01:37:34.333Z,76.32
2019-02-10T01:40:02.534Z,76.37
2019-02-10T01:42:30.707Z,76.45
2019-02-10T01:44:58.886Z,76.45
2019-02-10T01:47:27.064Z,76.45
2019-02-10T01:49:55.243Z,76.44
2019-02-10T01:52:23.416Z,76.46
2019-02-10T01:54:51.611Z,76.44
2019-02-10T01:57:19.793Z,76.47
2019-02-10T01:59:47.963Z,76.50
2019-02-10T02:02:16.138Z,76.49
2019-02-10T02:04:44.391Z,76.47
2019-02-10T02:07:12.580Z,76.46
2019-02-10T02:09:40.771Z,76.46
2019-02-10T02:12:09.116Z,76.45
2019-02-10T02:14:37.298Z,76.46
2019-02-10T02:17:05.479Z,76.46
2019-02-10T02:19:33.667Z,76.51
2019-02-10T02:22:01.841Z,76.57
2019-02-10T02:24:30.054Z,76.60
2019-02-10T02:26:58.232Z,76.62
2019-02-10T02:29:26.408Z,76.71
2019-02-10T02:31:54.580Z,76.74
2019-02-10T02:34:22.752Z,76.82
2019-02-10T02:36:50.932Z,76.86
2019-02-10T02:39:19.120Z,76.96
2019-02-10T02:41:47.308Z,77.02
2019-02-10T02:44:15.502Z,77.06
2019-02-10T02:46:43.685Z,77.06
2019-02-10T02:49:11.859Z,77.04
2019-02-10T02:51:40.047Z,77.03
2019-02-10T02:54:08.228Z,77.05
2019-02-10T02:56:36.439Z,77.09
2019-02-10T02:59:04.620Z,77.10
2019-02-10T03:01:32.795Z,77.12
2019-02-10T03:04:00.971Z,77.14
2019-02-10T03:06:30.793Z,77.15
2019-02-10T03:09:00.605Z,77.18
2019-02-10T03:11:28.789Z,77.20
2019-02-10T03:13:58.628Z,77.17
2019-02-10T03:16:26.809Z,77.09
2019-02-10T03:18:54.993Z,77.09
2019-02-10T03:21:23.230Z,77.07
2019-02-10T03:23:51.411Z,77.09
2019-02-10T03:26:19.624Z,77.10
2019-02-10T03:28:47.828Z,77.10
2019-02-10T03:31:16.016Z,77.11
2019-02-10T03:33:44.198Z,77.07
2019-02-10T03:36:12.461Z,77.03
2019-02-10T03:38:40.650Z,76.99
2019-02-10T03:41:08.845Z,76.98
2019-02-10T03:43:37.021Z,77.02
2019-02-10T03:46:05.217Z,77.04
2019-02-10T03:48:33.384Z,77.04
2019-02-10T03:51:01.569Z,77.05
2019-02-10T03:53:29.792Z,77.08
2019-02-10T03:55:57.975Z,77.10
2019-02-10T03:58:26.159Z,77.09
2019-02-10T04:00:54.362Z,77.11
2019-02-10T04:03:22.548Z,77.14
2019-02-10T04:05:50.729Z,77.19
2019-02-10T04:08:18.907Z,77.17
2019-02-10T04:10:47.115Z,77.16
2019-02-10T04:13:15.293Z,77.19
2019-02-10T04:15:43.476Z,77.19
2019-02-10T04:18:11.659Z,77.18
2019-02-10T04:20:39.837Z,77.22
2019-02-10T04:23:09.382Z,77.18
2019-02-10T04:25:37.566Z,77.15
2019-02-10T04:28:05.750Z,77.15
2019-02-10T04:30:33.951Z,77.11
2019-02-10T04:33:02.163Z,77.05
2019-02-10T04:35:30.368Z,77.01
2019-02-10T04:37:58.550Z,76.98
2019-02-10T04:40:26.723Z,76.98
2019-02-10T04:42:54.968Z,76.99
2019-02-10T04:45:23.187Z,76.98
2019-02-10T04:47:51.360Z,76.94
2019-02-10T04:50:19.588Z,76.92
2019-02-10T04:52:47.877Z,76.92
2019-02-10T04:55:16.066Z,76.90
2019-02-10T04:57:44.243Z,76.88
2019-02-10T05:00:12.451Z,76.84
2019-02-10T05:02:40.669Z,76.83
2019-02-10T05:05:08.852Z,76.83
2019-02-10T05:07:37.143Z,76.82
2019-02-10T05:10:05.634Z,76.82
2019-02-10T05:12:33.815Z,76.82
2019-02-10T05:15:02.001Z,76.82
2019-02-10T05:17:30.213Z,76.88
2019-02-10T05:19:58.426Z,76.91
2019-02-10T05:22:26.687Z,76.87
2019-02-10T05:24:54.914Z,76.89
2019-02-10T05:27:23.114Z,76.94
2019-02-10T05:29:51.324Z,76.91
2019-02-10T05:32:19.513Z,76.83
2019-02-10T05:34:47.737Z,76.82
2019-02-10T05:37:15.953Z,76.83
2019-02-10T05:39:44.132Z,76.81
2019-02-10T05:42:12.353Z,76.85
2019-02-10T05:44:40.527Z,76.84
2019-02-10T05:47:08.707Z,76.82
2019-02-10T05:49:36.883Z,76.84
2019-02-10T05:52:05.103Z,76.87
2019-02-10T05:54:33.278Z,76.84
2019-02-10T05:57:01.468Z,76.82
2019-02-10T05:59:29.645Z,76.82
2019-02-10T06:02:07.463Z,76.81
2019-02-10T06:04:38.992Z,76.83
2019-02-10T06:07:13.131Z,76.86
2019-02-10T06:09:41.343Z,76.84
2019-02-10T06:12:09.554Z,76.85
2019-02-10T06:14:37.737Z,76.82
2019-02-10T06:17:05.945Z,76.80
2019-02-10T06:19:34.126Z,76.82
2019-02-10T06:22:02.303Z,76.77
2019-02-10T06:24:30.485Z,76.75
2019-02-10T06:26:58.667Z,76.72
2019-02-10T06:29:26.880Z,76.75
2019-02-10T06:31:55.089Z,76.67
2019-02-10T06:34:23.300Z,76.64
2019-02-10T06:36:51.510Z,76.67
2019-02-10T06:39:19.692Z,76.65
2019-02-10T06:41:47.893Z,76.69
2019-02-10T06:44:16.079Z,76.67
2019-02-10T06:46:44.260Z,76.58
2019-02-10T06:49:12.437Z,76.55
2019-02-10T06:51:40.613Z,76.55
2019-02-10T06:54:08.798Z,76.54
2019-02-10T06:56:36.985Z,76.43
2019-02-10T06:59:06.805Z,76.40
2019-02-10T07:01:39.528Z,76.30
2019-02-10T07:04:10.910Z,76.27
2019-02-10T07:06:39.085Z,76.30
2019-02-10T07:09:07.269Z,76.17
2019-02-10T07:11:35.439Z,76.07
2019-02-10T07:14:03.628Z,75.99
2019-02-10T07:16:43.879Z,75.93
2019-02-10T07:19:48.340Z,75.97
2019-02-10T07:22:34.747Z,75.77
2019-02-10T07:25:15.141Z,75.63
2019-02-10T07:27:43.860Z,75.64
2019-02-10T07:30:18.298Z,75.31
2019-02-10T07:32:55.288Z,75.23
2019-02-10T07:35:45.029Z,74.96
2019-02-10T07:38:38.525Z,75.00
2019-02-10T07:41:29.919Z,74.90
2019-02-10T07:44:13.433Z,74.68
2019-02-10T07:47:07.452Z,74.37
2019-02-10T07:49:47.634Z,74.31
2019-02-10T07:52:31.181Z,74.14
2019-02-10T07:55:05.336Z,74.20
2019-02-10T07:57:52.891Z,74.18
2019-02-10T08:00:27.164Z,74.17
2019-02-10T08:03:21.104Z,73.86
2019-02-10T08:06:08.947Z,73.86
2019-02-10T08:08:52.788Z,73.69
2019-02-10T08:11:45.412Z,73.58
2019-02-10T08:14:16.851Z,73.39
2019-02-10T08:17:00.109Z,73.18
2019-02-10T08:19:55.976Z,72.95
2019-02-10T08:22:44.276Z,72.70
2019-02-10T08:25:18.396Z,72.69
2019-02-10T08:27:49.891Z,72.31
2019-02-10T08:30:33.022Z,72.17
2019-02-10T08:33:13.166Z,72.38
2019-02-10T08:35:53.574Z,71.71
2019-02-10T08:38:42.552Z,71.97
2019-02-10T08:41:19.746Z,71.47
2019-02-10T08:44:12.114Z,71.57
2019-02-10T08:46:58.552Z,71.59
2019-02-10T08:49:32.753Z,71.08
2019-02-10T08:52:21.988Z,70.97
2019-02-10T08:54:50.202Z,71.01
2019-02-10T08:57:18.415Z,71.29
2019-02-10T08:59:46.586Z,71.15
2019-02-10T09:02:14.800Z,70.41
2019-02-10T09:04:42.972Z,71.10
2019-02-10T09:07:11.142Z,70.99
2019-02-10T09:09:39.335Z,70.51
2019-02-10T09:12:07.541Z,70.31
2019-02-10T09:14:35.743Z,70.91
2019-02-10T09:17:03.947Z,70.29
2019-02-10T09:19:32.151Z,70.83
2019-02-10T09:22:00.324Z,70.42
2019-02-10T09:24:28.498Z,69.78
2019-02-10T09:26:56.672Z,69.70
2019-02-10T09:29:24.843Z,69.27
2019-02-10T09:31:53.019Z,69.70
2019-02-10T09:34:21.191Z,69.45
2019-02-10T09:36:49.372Z,69.59
2019-02-10T09:39:17.583Z,68.77
2019-02-10T09:41:45.770Z,68.94
2019-02-10T09:44:13.930Z,68.51
2019-02-10T09:46:42.131Z,68.51
2019-02-10T09:49:10.376Z,68.86
2019-02-10T09:51:38.584Z,68.35
2019-02-10T09:54:06.868Z,68.79
2019-02-10T09:56:35.042Z,68.66
2019-02-10T09:59:03.214Z,68.08
2019-02-10T10:01:31.390Z,67.55
2019-02-10T10:03:59.573Z,66.80
2019-02-10T10:06:27.770Z,67.38
2019-02-10T10:08:55.971Z,67.27
2019-02-10T10:11:24.143Z,66.47
2019-02-10T10:13:55.201Z,66.77
2019-02-10T10:16:23.444Z,65.54
2019-02-10T10:18:51.619Z,66.40
2019-02-10T10:21:19.800Z,65.43
2019-02-10T10:23:48.013Z,65.71
2019-02-10T10:26:16.206Z,64.79
2019-02-10T10:28:44.442Z,64.57
2019-02-10T10:31:12.614Z,64.23
2019-02-10T10:33:40.795Z,64.59
2019-02-10T10:36:08.967Z,62.68
2019-02-10T10:38:37.148Z,62.43
2019-02-10T10:41:05.326Z,63.06
2019-02-10T10:43:33.591Z,63.26
2019-02-10T10:46:01.762Z,62.73
2019-02-10T10:48:29.951Z,64.42
2019-02-10T10:50:58.159Z,63.34
2019-02-10T10:53:26.347Z,63.01
2019-02-10T10:55:54.552Z,64.67
2019-02-10T10:58:22.730Z,62.45
2019-02-10T11:00:50.911Z,62.70
2019-02-10T11:03:19.124Z,62.32
2019-02-10T11:05:47.319Z,62.72
2019-02-10T11:08:15.502Z,63.75
2019-02-10T11:10:43.707Z,63.03
2019-02-10T11:13:11.890Z,62.28
2019-02-10T11:15:40.067Z,62.35
2019-02-10T11:18:08.251Z,62.96
2019-02-10T11:20:36.447Z,62.77
2019-02-10T11:23:04.644Z,63.99
2019-02-10T11:25:32.820Z,62.02
2019-02-10T11:28:01.036Z,63.06
2019-02-10T11:30:29.228Z,63.89
2019-02-10T11:32:58.379Z,63.58
2019-02-10T11:35:26.551Z,62.63
2019-02-10T11:37:54.754Z,63.61
2019-02-10T11:40:22.971Z,62.67
2019-02-10T11:42:51.199Z,62.52
2019-02-10T11:45:19.427Z,62.81
2019-02-10T11:47:47.604Z,64.15
2019-02-10T11:50:15.788Z,63.91
2019-02-10T11:52:43.972Z,63.88
2019-02-10T11:55:12.179Z,63.50
2019-02-10T11:57:40.391Z,63.08
2019-02-10T12:00:16.800Z,63.11
2019-02-10T12:02:44.999Z,63.66
2019-02-10T12:05:13.201Z,63.96
2019-02-10T12:07:41.389Z,63.84
2019-02-10T12:10:11.968Z,64.19
2019-02-10T12:12:40.190Z,62.70
2019-02-10T12:15:10.596Z,63.52
2019-02-10T12:17:38.794Z,62.50
2019-02-10T12:20:10.196Z,62.52
2019-02-10T12:22:38.412Z,62.21
2019-02-10T12:25:07.885Z,61.96
2019-02-10T12:27:36.684Z,60.59
2019-02-10T12:30:14.011Z,61.08
2019-02-10T12:32:42.184Z,62.25
2019-02-10T12:35:12.822Z,61.80
2019-02-10T12:37:41.000Z,63.38
2019-02-10T12:40:10.421Z,61.67
2019-02-10T12:42:38.635Z,61.02
2019-02-10T12:45:09.171Z,61.79
2019-02-10T12:47:37.349Z,62.36
2019-02-10T12:50:11.221Z,61.03
2019-02-10T12:52:39.439Z,61.91
2019-02-10T12:55:08.764Z,61.23
2019-02-10T12:57:36.943Z,60.38
2019-02-10T13:00:13.688Z,61.85
2019-02-10T13:02:41.893Z,61.22
2019-02-10T13:05:10.195Z,60.71
2019-02-10T13:07:40.941Z,61.06
2019-02-10T13:10:11.952Z,61.76
2019-02-10T13:12:40.128Z,60.77
2019-02-10T13:15:09.845Z,60.44
2019-02-10T13:17:38.116Z,61.94
2019-02-10T13:20:09.057Z,58.28
2019-02-10T13:22:37.306Z,60.80
2019-02-10T13:25:08.037Z,61.88
2019-02-10T13:27:36.271Z,61.20
2019-02-10T13:30:07.546Z,59.96
2019-02-10T13:32:35.771Z,58.90
2019-02-10T13:35:04.379Z,59.95
2019-02-10T13:37:32.622Z,59.93
2019-02-10T13:40:01.256Z,58.35
2019-02-10T13:42:29.525Z,59.63
2019-02-10T13:44:58.118Z,59.82
2019-02-10T13:47:33.446Z,60.50
2019-02-10T13:50:06.014Z,59.24
2019-02-10T13:52:36.581Z,60.85
2019-02-10T13:55:06.897Z,61.63
2019-02-10T13:57:38.047Z,60.56
2019-02-10T14:00:18.079Z,60.41
2019-02-10T14:02:46.301Z,61.13
2019-02-10T14:05:14.561Z,59.03
2019-02-10T14:07:43.036Z,59.92
2019-02-10T14:10:13.538Z,60.34
2019-02-10T14:12:42.189Z,60.67
2019-02-10T14:15:15.320Z,59.63
2019-02-10T14:17:46.714Z,59.70
2019-02-10T14:20:23.465Z,59.53
2019-02-10T14:22:51.685Z,60.75
2019-02-10T14:25:20.054Z,59.49
2019-02-10T14:27:48.254Z,59.11
2019-02-10T14:30:24.021Z,59.14
2019-02-10T14:32:52.201Z,60.13
2019-02-10T14:35:20.367Z,59.12
2019-02-10T14:37:48.539Z,60.32
2019-02-10T14:40:16.715Z,60.36
2019-02-10T14:42:44.886Z,59.94
2019-02-10T14:45:14.328Z,60.02
2019-02-10T14:47:42.499Z,60.41
2019-02-10T14:50:17.050Z,60.88
2019-02-10T14:52:46.219Z,60.18
2019-02-10T14:55:14.426Z,61.47
2019-02-10T14:57:42.635Z,61.93
2019-02-10T15:00:14.801Z,61.78
2019-02-10T15:02:42.976Z,61.62
2019-02-10T15:05:11.225Z,61.84
2019-02-10T15:07:47.710Z,62.50
2019-02-10T15:10:18.168Z,61.96
2019-02-10T15:12:46.358Z,61.20
2019-02-10T15:15:14.573Z,61.84
2019-02-10T15:17:44.722Z,61.34
2019-02-10T15:20:13.766Z,62.11
2019-02-10T15:22:41.952Z,61.72
2019-02-10T15:25:13.838Z,62.45
2019-02-10T15:27:42.042Z,61.83
2019-02-10T15:30:15.333Z,62.83
2019-02-10T15:32:44.443Z,62.98
2019-02-10T15:35:12.614Z,63.14
2019-02-10T15:37:40.806Z,63.14
2019-02-10T15:40:10.632Z,63.67
2019-02-10T15:42:38.815Z,64.43
2019-02-10T15:45:12.113Z,64.30
2019-02-10T15:47:40.310Z,63.99
2019-02-10T15:50:14.489Z,64.50
2019-02-10T15:52:42.664Z,64.63
2019-02-10T15:55:12.192Z,63.98
2019-02-10T15:57:40.372Z,64.17
2019-02-10T16:00:11.907Z,65.03
2019-02-10T16:02:40.104Z,64.11
2019-02-10T16:05:08.278Z,63.95
2019-02-10T16:07:36.452Z,64.01
2019-02-10T16:10:09.227Z,63.58
2019-02-10T16:12:37.514Z,64.61
2019-02-10T16:15:07.535Z,64.45
2019-02-10T16:17:35.742Z,65.81
2019-02-10T16:20:06.262Z,66.97
2019-02-10T16:22:34.450Z,66.86
2019-02-10T16:25:02.615Z,67.58
2019-02-10T16:27:30.817Z,67.98
2019-02-10T16:29:58.995Z,68.18
2019-02-10T16:32:27.203Z,68.44
2019-02-10T16:34:55.385Z,68.79
2019-02-10T16:37:23.587Z,68.94
2019-02-10T16:39:51.802Z,69.26
2019-02-10T16:42:20.003Z,69.58
2019-02-10T16:44:48.289Z,69.78
2019-02-10T16:47:16.471Z,70.00
2019-02-10T16:49:44.706Z,70.22
2019-02-10T16:52:12.908Z,70.49
2019-02-10T16:54:41.086Z,70.95
2019-02-10T16:57:09.298Z,71.17
2019-02-10T16:59:43.281Z,71.31
2019-02-10T17:02:11.469Z,71.55
2019-02-10T17:04:40.542Z,71.86
2019-02-10T17:07:08.720Z,71.55
2019-02-10T17:09:37.821Z,71.20
2019-02-10T17:12:06.004Z,71.50
2019-02-10T17:14:34.200Z,71.70
2019-02-10T17:17:02.381Z,71.77
2019-02-10T17:19:30.599Z,71.69
2019-02-10T17:21:58.774Z,71.91
2019-02-10T17:24:27.006Z,72.55
2019-02-10T17:26:55.242Z,72.46
2019-02-10T17:29:24.208Z,72.28
2019-02-10T17:31:52.388Z,72.53
2019-02-10T17:34:20.581Z,72.41
2019-02-10T17:36:48.779Z,72.32
2019-02-10T17:39:16.949Z,72.43
2019-02-10T17:41:45.520Z,72.74
2019-02-10T17:44:15.655Z,72.84
2019-02-10T17:46:43.874Z,72.67
2019-02-10T17:49:12.053Z,72.67
2019-02-10T17:51:40.231Z,72.71
2019-02-10T17:54:08.407Z,72.99
2019-02-10T17:56:36.590Z,73.09
2019-02-10T17:59:04.769Z,73.17
2019-02-10T18:01:32.955Z,73.74
2019-02-10T18:04:01.173Z,74.11
2019-02-10T18:06:29.361Z,74.64
2019-02-10T18:08:57.590Z,75.06
2019-02-10T18:11:30.895Z,75.47
2019-02-10T18:13:55.722Z,75.53
2019-02-10T18:16:28.286Z,75.88
2019-02-10T18:19:04.071Z,76.67
2019-02-10T18:21:33.891Z,77.25
2019-02-10T18:24:06.695Z,77.90
2019-02-10T18:26:39.295Z,78.09
2019-02-10T18:29:25.407Z,78.09
2019-02-10T18:31:58.133Z,77.87
2019-02-10T18:34:36.730Z,77.65
2019-02-10T18:37:22.998Z,77.30
2019-02-10T18:40:08.937Z,77.15
2019-02-10T18:42:50.952Z,76.86
2019-02-10T18:45:23.827Z,76.86
2019-02-10T18:47:59.351Z,76.67
2019-02-10T18:50:29.300Z,76.74
2019-02-10T18:53:01.765Z,76.69
2019-02-10T18:55:31.573Z,76.69
2019-02-10T18:58:17.874Z,76.60
2019-02-10T19:01:04.134Z,76.54
2019-02-10T19:03:36.909Z,76.47
2019-02-10T19:06:18.457Z,76.41
2019-02-10T19:09:04.448Z,76.80
2019-02-10T19:11:50.843Z,76.77
2019-02-10T19:14:30.803Z,75.60
2019-02-10T19:17:00.620Z,73.96
2019-02-10T19:19:30.436Z,73.72
2019-02-10T19:22:00.295Z,73.79
2019-02-10T19:24:30.198Z,74.42
2019-02-10T19:27:02.533Z,74.38
2019-02-10T19:29:32.348Z,74.41
2019-02-10T19:32:04.497Z,74.78
2019-02-10T19:34:50.451Z,75.29
2019-02-10T19:37:29.493Z,74.96
2019-02-10T19:40:05.241Z,75.36
2019-02-10T19:42:35.053Z,75.03
2019-02-10T19:45:06.115Z,74.50
2019-02-10T19:47:35.928Z,74.05
2019-02-10T19:50:07.271Z,74.24
2019-02-10T19:52:43.061Z,74.18
2019-02-10T19:55:21.942Z,74.03
2019-02-10T19:57:57.474Z,73.84
2019-02-10T20:00:27.310Z,73.59
2019-02-10T20:02:59.934Z,73.74
2019-02-10T20:05:29.749Z,73.74
2019-02-10T20:07:59.695Z,73.80
2019-02-10T20:10:34.965Z,73.82
2019-02-10T20:13:07.792Z,73.62
2019-02-10T20:15:55.934Z,73.06
2019-02-10T20:18:31.693Z,72.79
2019-02-10T20:21:03.918Z,72.68
2019-02-10T20:23:35.682Z,72.47
2019-02-10T20:26:38.409Z,72.03
2019-02-10T20:29:08.214Z,72.27
2019-02-10T20:31:50.337Z,72.33
2019-02-10T20:34:25.987Z,72.57
2019-02-10T20:36:58.588Z,72.52
2019-02-10T20:39:28.345Z,72.68
2019-02-10T20:41:58.218Z,72.27
2019-02-10T20:44:33.424Z,72.28
2019-02-10T20:47:06.004Z,72.06
2019-02-10T20:49:35.853Z,72.51
2019-02-10T20:52:05.826Z,72.14
2019-02-10T20:54:38.355Z,71.87
2019-02-10T20:57:16.954Z,71.73
2019-02-10T20:59:52.556Z,71.52
2019-02-10T21:02:25.080Z,71.79
2019-02-10T21:04:57.654Z,71.27
2019-02-10T21:07:44.104Z,71.63
2019-02-10T21:10:25.096Z,71.13
2019-02-10T21:12:54.901Z,70.59
2019-02-10T21:15:36.988Z,70.33
2019-02-10T21:18:06.799Z,70.87
2019-02-10T21:20:36.681Z,70.55
2019-02-10T21:23:06.445Z,70.75
2019-02-10T21:25:42.002Z,70.95
2019-02-10T21:28:23.680Z,71.02
2019-02-10T21:31:08.238Z,71.47
2019-02-10T21:33:38.046Z,71.49
2019-02-10T21:36:07.885Z,70.98
2019-02-10T21:38:40.379Z,70.50
2019-02-10T21:41:15.687Z,70.59
2019-02-10T21:43:51.100Z,70.04
2019-02-10T21:46:29.670Z,70.07
2019-02-10T21:48:59.318Z,69.69
2019-02-10T21:51:27.496Z,70.26
2019-02-10T21:53:55.667Z,69.63
2019-02-10T21:56:23.837Z,69.97
2019-02-10T21:58:52.018Z,70.03
2019-02-10T22:01:20.217Z,70.25
2019-02-10T22:03:48.424Z,70.20
2019-02-10T22:06:16.749Z,70.20
2019-02-10T22:08:44.853Z,70.53
2019-02-10T22:11:13.024Z,70.64
2019-02-10T22:13:41.231Z,70.60
2019-02-10T22:16:09.676Z,70.76
2019-02-10T22:18:37.864Z,70.68
2019-02-10T22:21:06.060Z,70.37
2019-02-10T22:23:34.314Z,70.86
2019-02-10T22:26:02.492Z,70.02
2019-02-10T22:28:30.668Z,70.34
2019-02-10T22:30:58.835Z,69.94
2019-02-10T22:33:27.004Z,69.48
2019-02-10T22:35:55.212Z,69.52
2019-02-10T22:38:23.377Z,69.32
2019-02-10T22:40:51.582Z,69.72
2019-02-10T22:43:19.763Z,69.07
2019-02-10T22:45:47.926Z,68.48
2019-02-10T22:48:16.162Z,68.36
2019-02-10T22:50:44.328Z,68.39
2019-02-10T22:53:12.497Z,68.58
2019-02-10T22:55:40.669Z,68.24
2019-02-10T22:58:08.838Z,68.03
2019-02-10T23:00:43.879Z,68.17
2019-02-10T23:03:12.222Z,68.03
2019-02-10T23:05:40.428Z,68.12
2019-02-10T23:08:08.633Z,67.77
2019-02-10T23:10:36.793Z,67.60
2019-02-10T23:13:04.961Z,68.03
2019-02-10T23:15:33.132Z,67.74
2019-02-10T23:18:01.309Z,67.77
2019-02-10T23:20:29.509Z,68.37
2019-02-10T23:22:57.714Z,68.06
2019-02-10T23:25:25.895Z,68.07
2019-02-10T23:27:54.068Z,68.49
2019-02-10T23:30:22.239Z,68.84
2019-02-10T23:35:17.755Z,68.59
2019-02-10T23:37:45.923Z,68.92
2019-02-10T23:40:14.132Z,69.02
2019-02-10T23:42:42.337Z,69.04
2019-02-10T23:45:10.504Z,69.59
2019-02-10T23:47:38.693Z,69.53
2019-02-10T23:50:07.838Z,69.77
2019-02-10T23:52:35.971Z,69.77
2019-02-10T23:55:04.677Z,69.64
2019-02-10T23:57:32.858Z,69.82
